createdAt,value
2023-01-13T00:01:06.244Z,5.18
2023-01-13T00:03:32.710Z,4.70
2023-01-13T00:05:59.565Z,4.55
2023-01-13T00:08:26.194Z,4.07
2023-01-13T00:10:52.925Z,4.28
2023-01-13T00:13:26.752Z,5.13
2023-01-13T00:15:57.234Z,4.70
2023-01-13T00:18:23.809Z,4.75
2023-01-13T00:21:03.963Z,4.68
2023-01-13T00:23:31.431Z,4.47
2023-01-13T00:25:59.148Z,4.40
2023-01-13T00:28:25.994Z,4.65
2023-01-13T00:30:52.627Z,4.80
2023-01-13T00:33:19.306Z,4.22
2023-01-13T00:35:45.848Z,4.72
2023-01-13T00:38:12.287Z,4.88
2023-01-13T00:40:38.782Z,4.10
2023-01-13T00:43:23.642Z,4.25
2023-01-13T00:45:53.077Z,4.13
2023-01-13T00:48:20.066Z,4.30
2023-01-13T00:50:46.767Z,4.30
2023-01-13T00:53:14.881Z,3.92
2023-01-13T00:55:41.384Z,4.95
2023-01-13T00:58:07.948Z,4.07
2023-01-13T01:00:34.570Z,4.63
2023-01-13T01:03:01.117Z,4.38
2023-01-13T01:05:27.626Z,4.65
2023-01-13T01:07:54.078Z,5.00
2023-01-13T01:10:20.586Z,4.82
2023-01-13T01:12:47.050Z,5.15
2023-01-13T01:15:13.601Z,5.72
2023-01-13T01:17:41.459Z,5.07
2023-01-13T01:20:08.435Z,5.82
2023-01-13T01:22:34.936Z,5.20
2023-01-13T01:25:01.758Z,6.18
2023-01-13T01:27:28.307Z,5.68
2023-01-13T01:29:54.809Z,6.13
2023-01-13T01:32:21.295Z,6.15
2023-01-13T01:34:47.758Z,6.00
2023-01-13T01:37:14.240Z,5.70
2023-01-13T01:39:41.046Z,7.35
2023-01-13T01:42:30.672Z,6.55
2023-01-13T01:45:00.243Z,6.47
2023-01-13T01:47:27.881Z,7.88
2023-01-13T01:49:55.255Z,6.13
2023-01-13T01:52:28.093Z,5.90
2023-01-13T01:54:56.719Z,6.18
2023-01-13T01:57:24.881Z,6.63
2023-01-13T01:59:51.529Z,5.90
2023-01-13T02:02:18.359Z,7.22
2023-01-13T02:04:51.025Z,8.00
2023-01-13T02:07:18.931Z,5.28
2023-01-13T02:09:45.494Z,5.13
2023-01-13T02:12:30.223Z,6.07
2023-01-13T02:14:59.490Z,5.63
2023-01-13T02:17:28.976Z,5.65
2023-01-13T02:20:14.345Z,6.53
2023-01-13T02:22:59.695Z,5.68
2023-01-13T02:25:48.831Z,4.50
2023-01-13T02:28:30.739Z,4.80
2023-01-13T02:31:19.632Z,4.07
2023-01-13T02:33:51.211Z,6.25
2023-01-13T02:36:23.773Z,7.93
2023-01-13T02:38:52.778Z,4.45
2023-01-13T02:41:43.530Z,5.57
2023-01-13T02:44:11.290Z,5.90
2023-01-13T02:46:41.039Z,4.03
2023-01-13T02:49:10.343Z,5.00
2023-01-13T02:51:38.785Z,4.97
2023-01-13T02:54:08.323Z,5.90
2023-01-13T02:56:37.265Z,5.68
2023-01-13T02:59:04.314Z,7.20
2023-01-13T03:01:30.961Z,5.68
2023-01-13T03:03:57.499Z,4.97
2023-01-13T03:06:38.720Z,4.38
2023-01-13T03:09:15.217Z,5.15
2023-01-13T03:11:58.790Z,3.45
2023-01-13T03:14:30.272Z,3.15
2023-01-13T03:16:56.662Z,2.25
2023-01-13T03:19:39.599Z,2.67
2023-01-13T03:22:09.084Z,1.50
2023-01-13T03:24:47.908Z,2.63
2023-01-13T03:27:14.307Z,2.40
2023-01-13T03:29:50.514Z,2.10
2023-01-13T03:32:29.095Z,1.75
2023-01-13T03:34:57.289Z,1.80
2023-01-13T03:37:30.682Z,1.65
2023-01-13T03:40:02.267Z,2.22
2023-01-13T03:42:30.440Z,1.92
2023-01-13T03:45:04.181Z,2.00
2023-01-13T03:50:26.281Z,2.03
2023-01-13T03:53:04.121Z,3.10
2023-01-13T03:55:34.231Z,4.00
2023-01-13T03:58:14.448Z,3.58
2023-01-13T04:00:50.571Z,3.20
2023-01-13T04:03:23.308Z,3.47
2023-01-13T04:05:52.482Z,2.53
2023-01-13T04:08:28.754Z,4.03
2023-01-13T04:11:05.543Z,4.10
2023-01-13T04:13:34.125Z,4.60
2023-01-13T04:16:00.751Z,3.83
2023-01-13T04:18:28.454Z,5.20
2023-01-13T04:20:56.584Z,5.45
2023-01-13T04:23:23.193Z,4.63
2023-01-13T04:25:50.036Z,3.60
2023-01-13T04:28:16.867Z,3.58
2023-01-13T04:30:43.528Z,3.13
2023-01-13T04:33:10.616Z,3.47
2023-01-13T04:35:37.384Z,3.65
2023-01-13T04:38:04.930Z,3.88
2023-01-13T04:40:31.507Z,3.10
2023-01-13T04:42:57.971Z,3.65
2023-01-13T04:45:24.507Z,3.83
2023-01-13T04:47:51.706Z,3.92
2023-01-13T04:50:22.800Z,3.05
2023-01-13T04:52:53.068Z,3.00
2023-01-13T04:55:20.613Z,3.92
2023-01-13T04:57:47.092Z,3.17
2023-01-13T05:00:14.696Z,2.95
2023-01-13T05:02:41.284Z,3.90
2023-01-13T05:05:08.093Z,3.25
2023-01-13T05:07:34.643Z,2.97
2023-01-13T05:10:01.081Z,3.25
2023-01-13T05:12:46.280Z,3.20
2023-01-13T05:15:33.258Z,3.47
2023-01-13T05:18:00.558Z,3.17
2023-01-13T05:20:27.104Z,4.32
2023-01-13T05:23:12.221Z,4.13
2023-01-13T05:25:39.880Z,3.17
2023-01-13T05:28:07.086Z,2.88
2023-01-13T05:30:36.807Z,2.65
2023-01-13T05:33:03.359Z,3.03
2023-01-13T05:35:29.921Z,3.88
2023-01-13T05:37:56.553Z,3.30
2023-01-13T05:40:41.780Z,3.47
2023-01-13T05:43:21.481Z,4.32
2023-01-13T05:45:48.005Z,4.00
2023-01-13T05:48:15.056Z,2.95
2023-01-13T05:50:41.541Z,3.90
2023-01-13T05:53:08.065Z,4.00
2023-01-13T05:55:34.564Z,3.17
2023-01-13T05:58:01.070Z,5.05
2023-01-13T06:00:27.525Z,4.00
2023-01-13T06:02:54.003Z,3.58
2023-01-13T06:05:20.555Z,3.38
2023-01-13T06:07:47.139Z,3.75
2023-01-13T06:10:13.619Z,4.63
2023-01-13T06:12:40.185Z,3.75
2023-01-13T06:15:06.977Z,3.63
2023-01-13T06:17:33.430Z,3.78
2023-01-13T06:19:59.862Z,3.85
2023-01-13T06:22:35.701Z,3.00
2023-01-13T06:25:02.270Z,4.20
2023-01-13T06:27:29.058Z,3.40
2023-01-13T06:29:57.151Z,5.22
2023-01-13T06:32:29.624Z,4.22
2023-01-13T06:34:59.270Z,4.38
2023-01-13T06:37:26.248Z,4.55
2023-01-13T06:39:56.922Z,4.63
2023-01-13T06:42:42.039Z,3.42
2023-01-13T06:45:08.819Z,3.80
2023-01-13T06:47:35.295Z,3.75
2023-01-13T06:50:01.807Z,4.38
2023-01-13T06:52:30.533Z,3.20
2023-01-13T06:54:57.665Z,4.25
2023-01-13T06:57:24.422Z,3.60
2023-01-13T06:59:50.920Z,3.30
2023-01-13T07:02:17.509Z,4.45
2023-01-13T07:04:45.185Z,4.88
2023-01-13T07:07:12.503Z,4.82
2023-01-13T07:09:39.536Z,4.78
2023-01-13T07:12:06.453Z,4.18
2023-01-13T07:14:51.671Z,4.75
2023-01-13T07:17:25.163Z,3.45
2023-01-13T07:22:18.476Z,4.47
2023-01-13T07:24:44.993Z,3.10
2023-01-13T07:27:14.174Z,4.35
2023-01-13T07:29:40.720Z,3.25
2023-01-13T07:32:08.069Z,4.95
2023-01-13T07:34:34.613Z,4.78
2023-01-13T07:37:01.403Z,3.80
2023-01-13T07:39:28.201Z,6.30
2023-01-13T07:42:13.406Z,4.55
2023-01-13T07:44:39.897Z,6.30
2023-01-13T07:47:08.570Z,4.47
2023-01-13T07:49:35.092Z,4.53
2023-01-13T07:52:01.811Z,4.60
2023-01-13T07:54:40.184Z,4.97
2023-01-13T07:57:07.855Z,4.47
2023-01-13T07:59:34.510Z,4.55
2023-01-13T08:02:01.297Z,4.80
2023-01-13T08:04:27.905Z,4.72
2023-01-13T08:06:54.501Z,4.28
2023-01-13T08:09:20.994Z,5.18
2023-01-13T08:12:07.476Z,4.93
2023-01-13T08:14:34.060Z,5.72
2023-01-13T08:17:00.588Z,4.45
2023-01-13T08:19:27.055Z,4.88
2023-01-13T08:21:53.566Z,5.35
2023-01-13T08:24:20.031Z,4.45
2023-01-13T08:26:46.520Z,4.75
2023-01-13T08:29:14.914Z,5.32
2023-01-13T08:31:41.661Z,4.93
2023-01-13T08:34:08.121Z,5.25
2023-01-13T08:36:34.694Z,5.40
2023-01-13T08:39:01.280Z,4.00
2023-01-13T08:41:46.386Z,4.78
2023-01-13T08:44:12.874Z,4.60
2023-01-13T08:46:39.432Z,5.78
2023-01-13T08:49:05.891Z,7.60
2023-01-13T08:51:32.403Z,5.47
2023-01-13T08:53:58.986Z,5.93
2023-01-13T08:56:25.495Z,5.30
2023-01-13T08:58:51.925Z,5.78
2023-01-13T09:01:21.345Z,6.43
2023-01-13T09:03:47.896Z,6.57
2023-01-13T09:06:14.615Z,6.57
2023-01-13T09:08:41.206Z,5.82
2023-01-13T09:11:28.372Z,5.97
2023-01-13T09:13:54.922Z,5.18
2023-01-13T09:16:21.352Z,8.13
2023-01-13T09:18:47.814Z,6.22
2023-01-13T09:21:14.349Z,6.22
2023-01-13T09:23:40.900Z,7.10
2023-01-13T09:26:08.286Z,6.18
2023-01-13T09:28:34.762Z,6.60
2023-01-13T09:31:01.669Z,5.65
2023-01-13T09:33:46.942Z,6.43
2023-01-13T09:36:13.426Z,6.85
2023-01-13T09:38:39.932Z,5.55
2023-01-13T09:41:26.374Z,6.72
2023-01-13T09:43:57.181Z,6.15
2023-01-13T09:46:47.500Z,6.00
2023-01-13T09:49:20.859Z,7.78
2023-01-13T09:51:53.159Z,5.60
2023-01-13T09:54:32.206Z,6.38
2023-01-13T09:56:59.365Z,6.85
2023-01-13T09:59:29.493Z,6.95
2023-01-13T10:02:01.984Z,6.47
2023-01-13T10:04:28.477Z,5.13
2023-01-13T10:07:00.691Z,5.95
2023-01-13T10:09:27.179Z,6.30
2023-01-13T10:12:14.781Z,5.75
2023-01-13T10:14:44.104Z,5.30
2023-01-13T10:17:11.886Z,5.32
2023-01-13T10:19:46.744Z,5.82
2023-01-13T10:22:28.261Z,5.68
2023-01-13T10:25:12.554Z,6.05
2023-01-13T10:27:49.430Z,5.20
2023-01-13T10:30:20.559Z,5.40
2023-01-13T10:32:57.748Z,4.82
2023-01-13T10:35:43.974Z,7.07
2023-01-13T10:38:16.276Z,5.75
2023-01-13T10:41:09.023Z,5.75
2023-01-13T10:43:35.511Z,7.88
2023-01-13T10:46:06.836Z,6.28
2023-01-13T10:49:02.846Z,5.45
2023-01-13T10:51:30.674Z,4.97
2023-01-13T10:53:58.828Z,6.40
2023-01-13T10:56:27.444Z,7.07
2023-01-13T10:59:08.818Z,7.03
2023-01-13T11:01:38.082Z,6.95
2023-01-13T11:04:16.510Z,4.93
2023-01-13T11:06:46.720Z,6.82
2023-01-13T11:09:19.309Z,6.97
2023-01-13T11:11:47.429Z,5.47
2023-01-13T11:14:40.197Z,5.47
2023-01-13T11:17:12.289Z,5.40
2023-01-13T11:19:42.121Z,7.90
2023-01-13T11:22:08.779Z,6.32
2023-01-13T11:24:37.894Z,5.93
2023-01-13T11:27:27.716Z,5.07
2023-01-13T11:29:59.833Z,4.85
2023-01-13T11:32:29.328Z,6.15
2023-01-13T11:35:14.907Z,4.20
2023-01-13T11:37:44.518Z,5.28
2023-01-13T11:40:16.582Z,6.05
2023-01-13T11:42:55.497Z,4.35
2023-01-13T11:45:42.317Z,5.45
2023-01-13T11:48:12.609Z,5.60
2023-01-13T11:50:45.345Z,4.28
2023-01-13T11:53:17.829Z,5.32
2023-01-13T11:55:53.699Z,4.88
2023-01-13T11:58:25.057Z,3.78
2023-01-13T12:01:02.930Z,5.18
2023-01-13T12:03:38.451Z,4.80
2023-01-13T12:06:26.311Z,4.25
2023-01-13T12:08:55.882Z,4.35
2023-01-13T12:11:59.049Z,3.85
2023-01-13T12:14:38.243Z,3.88
2023-01-13T12:17:08.442Z,4.25
2023-01-13T12:19:40.388Z,4.47
2023-01-13T12:22:12.629Z,4.35
2023-01-13T12:25:12.156Z,3.70
2023-01-13T12:27:50.020Z,3.90
2023-01-13T12:30:27.369Z,4.15
2023-01-13T12:32:59.682Z,3.90
2023-01-13T12:35:33.850Z,4.18
2023-01-13T12:38:11.517Z,4.60
2023-01-13T12:40:51.718Z,3.65
2023-01-13T12:43:38.558Z,4.57
2023-01-13T12:46:21.419Z,4.82
2023-01-13T12:48:57.295Z,4.35
2023-01-13T12:51:33.899Z,3.63
2023-01-13T12:54:01.475Z,3.60
2023-01-13T12:56:45.998Z,4.30
2023-01-13T12:59:21.500Z,3.47
2023-01-13T13:01:49.183Z,3.97
2023-01-13T13:04:38.749Z,3.72
2023-01-13T13:07:08.251Z,3.40
2023-01-13T13:09:45.078Z,4.22
2023-01-13T13:12:48.887Z,3.28
2023-01-13T13:15:26.569Z,3.65
2023-01-13T13:17:59.476Z,4.25
2023-01-13T13:20:44.957Z,3.03
2023-01-13T13:23:28.121Z,4.35
2023-01-13T13:26:10.004Z,3.80
2023-01-13T13:28:38.553Z,4.90
2023-01-13T13:31:23.203Z,3.67
2023-01-13T13:34:15.954Z,4.47
2023-01-13T13:36:42.407Z,4.93
2023-01-13T13:39:40.220Z,4.68
2023-01-13T13:42:30.274Z,3.72
2023-01-13T13:45:15.933Z,4.20
2023-01-13T13:47:42.440Z,4.00
2023-01-13T13:50:13.763Z,4.60
2023-01-13T13:52:42.806Z,4.15
2023-01-13T13:55:14.775Z,4.03
2023-01-13T13:57:44.840Z,4.43
2023-01-13T14:00:20.520Z,3.85
2023-01-13T14:02:48.562Z,4.10
2023-01-13T14:05:15.004Z,4.57
2023-01-13T14:07:42.573Z,3.92
2023-01-13T14:10:14.229Z,4.63
2023-01-13T14:12:41.530Z,4.60
2023-01-13T14:15:23.847Z,3.78
2023-01-13T14:17:50.428Z,5.00
2023-01-13T14:20:17.728Z,5.03
2023-01-13T14:22:48.294Z,4.40
2023-01-13T14:25:27.265Z,4.82
2023-01-13T14:27:54.970Z,4.50
2023-01-13T14:30:22.837Z,5.22
2023-01-13T14:32:49.403Z,4.82
2023-01-13T14:35:16.566Z,4.75
2023-01-13T14:37:43.422Z,4.13
2023-01-13T14:40:33.332Z,5.30
2023-01-13T14:43:03.228Z,3.88
2023-01-13T14:45:33.033Z,5.45
2023-01-13T14:48:03.294Z,5.18
2023-01-13T14:50:33.853Z,4.90
2023-01-13T14:53:01.455Z,5.15
2023-01-13T14:55:28.093Z,4.75
2023-01-13T14:58:14.560Z,4.40
2023-01-13T15:00:41.100Z,5.00
2023-01-13T15:03:08.079Z,5.53
2023-01-13T15:05:36.354Z,4.85
2023-01-13T15:08:02.935Z,4.22
2023-01-13T15:10:31.457Z,4.03
2023-01-13T15:12:59.613Z,4.68
2023-01-13T15:15:28.504Z,4.00
2023-01-13T15:17:55.014Z,4.68
2023-01-13T15:20:24.644Z,4.28
2023-01-13T15:22:51.782Z,4.50
2023-01-13T15:25:18.247Z,3.47
2023-01-13T15:27:45.906Z,3.78
2023-01-13T15:30:16.753Z,2.80
2023-01-13T15:32:43.635Z,3.42
2023-01-13T15:35:14.187Z,3.72
2023-01-13T15:37:41.185Z,2.92
2023-01-13T15:40:29.639Z,4.00
2023-01-13T15:43:14.784Z,3.17
2023-01-13T15:46:00.082Z,3.58
2023-01-13T15:48:28.009Z,3.17
2023-01-13T15:50:54.489Z,2.88
2023-01-13T15:53:21.276Z,3.28
2023-01-13T15:55:51.019Z,3.65
2023-01-13T15:58:19.000Z,3.15
2023-01-13T16:00:45.668Z,3.30
2023-01-13T16:03:16.094Z,3.03
2023-01-13T16:05:43.692Z,3.03
2023-01-13T16:08:20.371Z,3.50
2023-01-13T16:10:47.081Z,3.95
2023-01-13T16:13:13.950Z,4.38
2023-01-13T16:15:44.485Z,3.08
2023-01-13T16:18:15.741Z,3.30
2023-01-13T16:20:42.454Z,3.38
2023-01-13T16:23:09.017Z,3.80
2023-01-13T16:25:35.626Z,3.25
2023-01-13T16:28:02.303Z,4.70
2023-01-13T16:30:30.478Z,4.60
2023-01-13T16:32:57.275Z,3.33
2023-01-13T16:35:24.231Z,4.40
2023-01-13T16:37:50.943Z,3.97
2023-01-13T16:40:22.421Z,4.45
2023-01-13T16:42:49.053Z,4.07
2023-01-13T16:45:15.671Z,3.72
2023-01-13T16:47:43.861Z,4.07
2023-01-13T16:50:23.170Z,4.88
2023-01-13T16:52:49.811Z,4.40
2023-01-13T16:55:16.342Z,4.20
2023-01-13T16:57:42.910Z,4.38
2023-01-13T17:00:13.054Z,4.03
2023-01-13T17:02:39.785Z,4.50
2023-01-13T17:05:06.816Z,5.32
2023-01-13T17:07:33.603Z,3.63
2023-01-13T17:10:00.095Z,5.45
2023-01-13T17:12:26.695Z,4.35
2023-01-13T17:14:53.181Z,4.97
2023-01-13T17:17:21.533Z,4.25
2023-01-13T17:19:48.040Z,3.60
2023-01-13T17:22:14.710Z,4.10
2023-01-13T17:24:41.272Z,4.38
2023-01-13T17:27:07.877Z,4.50
2023-01-13T17:29:34.488Z,5.57
2023-01-13T17:32:01.409Z,4.38
2023-01-13T17:34:27.970Z,4.68
2023-01-13T17:36:54.418Z,4.65
2023-01-13T17:39:23.656Z,5.63
2023-01-13T17:41:51.227Z,4.63
2023-01-13T17:44:18.581Z,5.10
2023-01-13T17:46:45.495Z,5.00
2023-01-13T17:49:12.688Z,3.92
2023-01-13T17:51:39.220Z,4.60
2023-01-13T17:54:05.786Z,5.10
2023-01-13T17:56:32.416Z,3.92
2023-01-13T17:58:58.828Z,5.28
2023-01-13T18:01:30.439Z,5.13
2023-01-13T18:03:57.309Z,4.22
2023-01-13T18:06:24.126Z,5.70
2023-01-13T18:08:50.594Z,4.88
2023-01-13T18:11:21.203Z,4.80
2023-01-13T18:13:54.805Z,5.53
2023-01-13T18:16:21.493Z,6.38
2023-01-13T18:18:50.361Z,5.13
2023-01-13T18:21:40.225Z,4.88
2023-01-13T18:24:29.458Z,4.15
2023-01-13T18:27:14.348Z,5.10
2023-01-13T18:29:40.764Z,4.32
2023-01-13T18:32:08.982Z,4.32
2023-01-13T18:34:38.735Z,4.78
2023-01-13T18:37:06.306Z,4.30
2023-01-13T18:39:32.939Z,4.85
2023-01-13T18:42:18.117Z,5.30
2023-01-13T18:44:44.612Z,4.95
2023-01-13T18:47:11.115Z,4.60
2023-01-13T18:49:37.627Z,7.53
2023-01-13T18:52:04.286Z,4.90
2023-01-13T18:54:30.793Z,4.60
2023-01-13T18:56:57.479Z,5.05
2023-01-13T18:59:24.561Z,4.80
2023-01-13T19:01:54.073Z,4.65
2023-01-13T19:04:20.633Z,4.90
2023-01-13T19:06:53.615Z,4.43
2023-01-13T19:09:24.374Z,4.80
2023-01-13T19:11:51.670Z,5.35
2023-01-13T19:14:38.340Z,6.93
2023-01-13T19:17:06.711Z,4.28
2023-01-13T19:19:33.208Z,5.40
2023-01-13T19:21:59.762Z,5.35
2023-01-13T19:24:26.256Z,7.82
2023-01-13T19:26:53.504Z,6.43
2023-01-13T19:29:20.440Z,5.47
2023-01-13T19:31:46.903Z,5.35
2023-01-13T19:34:13.629Z,5.72
2023-01-13T19:36:40.114Z,5.75
2023-01-13T19:39:06.781Z,5.60
2023-01-13T19:41:51.892Z,5.88
2023-01-13T19:44:37.037Z,6.45
2023-01-13T19:47:04.343Z,5.60
2023-01-13T19:49:30.833Z,4.63
2023-01-13T19:51:57.452Z,5.32
2023-01-13T19:54:24.148Z,6.13
2023-01-13T19:56:50.661Z,4.97
2023-01-13T19:59:22.219Z,5.10
2023-01-13T20:01:52.376Z,6.40
2023-01-13T20:04:26.707Z,5.13
2023-01-13T20:06:53.225Z,4.78
2023-01-13T20:09:19.687Z,4.63
2023-01-13T20:11:48.724Z,6.13
2023-01-13T20:14:15.437Z,5.35
2023-01-13T20:16:41.890Z,5.32
2023-01-13T20:19:08.397Z,5.72
2023-01-13T20:21:34.816Z,6.00
2023-01-13T20:24:01.334Z,5.30
2023-01-13T20:26:27.802Z,5.63
2023-01-13T20:28:54.414Z,4.50
2023-01-13T20:31:20.991Z,5.30
2023-01-13T20:33:50.880Z,5.60
2023-01-13T20:36:25.092Z,6.10
2023-01-13T20:38:51.600Z,5.22
2023-01-13T20:41:36.863Z,6.15
2023-01-13T20:44:03.318Z,6.50
2023-01-13T20:46:29.855Z,6.28
2023-01-13T20:48:56.268Z,5.97
2023-01-13T20:51:22.762Z,5.47
2023-01-13T20:53:49.290Z,6.53
2023-01-13T20:56:15.765Z,6.15
2023-01-13T20:58:43.979Z,5.97
2023-01-13T21:01:10.489Z,6.05
2023-01-13T21:03:37.129Z,5.88
2023-01-13T21:06:03.645Z,7.13
2023-01-13T21:08:30.263Z,5.75
2023-01-13T21:11:04.613Z,5.80
2023-01-13T21:13:50.135Z,7.05
2023-01-13T21:16:16.758Z,6.57
2023-01-13T21:19:01.914Z,7.50
2023-01-13T21:21:28.317Z,6.70
2023-01-13T21:23:54.894Z,7.47
2023-01-13T21:26:22.165Z,7.03
2023-01-13T21:28:55.609Z,6.78
2023-01-13T21:31:22.204Z,6.45
2023-01-13T21:33:52.534Z,6.68
2023-01-13T21:36:19.044Z,6.15
2023-01-13T21:38:49.942Z,7.40
2023-01-13T21:41:36.321Z,7.45
2023-01-13T21:44:21.457Z,6.43
2023-01-13T21:47:06.581Z,6.78
2023-01-13T21:49:33.142Z,7.57
2023-01-13T21:51:59.852Z,6.10
2023-01-13T21:54:26.271Z,8.45
2023-01-13T21:56:52.773Z,6.80
2023-01-13T21:59:19.688Z,5.90
2023-01-13T22:02:23.234Z,6.32
2023-01-13T22:04:32.672Z,7.18
2023-01-13T22:07:02.009Z,5.63
2023-01-13T22:09:30.133Z,5.63
2023-01-13T22:11:56.564Z,6.18
2023-01-13T22:14:24.424Z,7.28
2023-01-13T22:16:51.117Z,5.47
2023-01-13T22:19:18.775Z,4.80
2023-01-13T22:21:45.195Z,5.70
2023-01-13T22:24:11.806Z,7.70
2023-01-13T22:26:38.308Z,7.63
2023-01-13T22:29:04.963Z,6.32
2023-01-13T22:31:31.864Z,6.10
2023-01-13T22:33:58.359Z,5.53
2023-01-13T22:36:24.879Z,5.75
2023-01-13T22:38:55.882Z,6.05
2023-01-13T22:41:22.434Z,6.30
2023-01-13T22:43:48.864Z,6.82
2023-01-13T22:46:15.417Z,5.70
2023-01-13T22:48:41.921Z,7.47
2023-01-13T22:51:15.447Z,5.32
2023-01-13T22:53:42.417Z,4.28
2023-01-13T22:56:15.042Z,6.85
2023-01-13T22:58:41.519Z,5.55
2023-01-13T23:01:09.237Z,4.90
2023-01-13T23:03:35.808Z,5.82
2023-01-13T23:06:02.355Z,5.55
2023-01-13T23:08:28.823Z,5.65
2023-01-13T23:11:05.481Z,4.90
2023-01-13T23:13:32.415Z,5.45
2023-01-13T23:16:09.652Z,4.70
2023-01-13T23:18:36.479Z,5.32
2023-01-13T23:21:03.799Z,5.55
2023-01-13T23:23:30.650Z,5.45
2023-01-13T23:25:57.157Z,4.65
2023-01-13T23:28:23.675Z,6.03
2023-01-13T23:30:50.449Z,4.93
2023-01-13T23:33:17.312Z,4.22
2023-01-13T23:35:44.527Z,5.25
2023-01-13T23:38:10.981Z,5.93
2023-01-13T23:40:38.451Z,6.13
2023-01-13T23:43:04.945Z,6.85
2023-01-13T23:45:31.435Z,5.75
2023-01-13T23:47:57.926Z,6.55
2023-01-13T23:50:25.159Z,6.15
2023-01-13T23:52:51.605Z,8.30
2023-01-13T23:55:18.080Z,5.57
2023-01-13T23:57:44.551Z,7.97
